sensor_id;sensor_type;location;lat;lon;timestamp;temperature;humidity
62589;DHT22;58504;48.770;9.148;2023-11-21T00:02:04;19.90;57.70
62589;DHT22;58504;48.770;9.148;2023-11-21T00:04:31;19.90;57.80
62589;DHT22;58504;48.770;9.148;2023-11-21T00:06:59;19.90;57.80
62589;DHT22;58504;48.770;9.148;2023-11-21T00:09:26;19.90;57.90
62589;DHT22;58504;48.770;9.148;2023-11-21T00:11:52;19.90;57.80
62589;DHT22;58504;48.770;9.148;2023-11-21T00:14:19;19.90;57.80
62589;DHT22;58504;48.770;9.148;2023-11-21T00:16:46;19.80;57.80
62589;DHT22;58504;48.770;9.148;2023-11-21T00:19:13;19.80;57.80
62589;DHT22;58504;48.770;9.148;2023-11-21T00:21:40;19.80;57.90
62589;DHT22;58504;48.770;9.148;2023-11-21T00:24:11;19.80;57.90
62589;DHT22;58504;48.770;9.148;2023-11-21T00:26:39;19.80;57.90
62589;DHT22;58504;48.770;9.148;2023-11-21T00:29:06;19.70;57.80
62589;DHT22;58504;48.770;9.148;2023-11-21T00:31:33;19.70;57.90
62589;DHT22;58504;48.770;9.148;2023-11-21T00:34:02;19.70;57.90
62589;DHT22;58504;48.770;9.148;2023-11-21T00:36:30;19.70;57.90
62589;DHT22;58504;48.770;9.148;2023-11-21T00:38:57;19.70;57.90
62589;DHT22;58504;48.770;9.148;2023-11-21T00:41:26;19.70;57.90
62589;DHT22;58504;48.770;9.148;2023-11-21T00:43:53;19.70;57.90
62589;DHT22;58504;48.770;9.148;2023-11-21T00:46:20;19.60;57.90
62589;DHT22;58504;48.770;9.148;2023-11-21T00:48:47;19.60;58.00
62589;DHT22;58504;48.770;9.148;2023-11-21T00:51:14;19.60;58.00
62589;DHT22;58504;48.770;9.148;2023-11-21T00:53:41;19.60;58.00
62589;DHT22;58504;48.770;9.148;2023-11-21T00:56:08;19.60;58.00
62589;DHT22;58504;48.770;9.148;2023-11-21T00:58:36;19.60;58.10
62589;DHT22;58504;48.770;9.148;2023-11-21T01:01:02;19.60;58.10
62589;DHT22;58504;48.770;9.148;2023-11-21T01:03:29;19.60;58.10
62589;DHT22;58504;48.770;9.148;2023-11-21T01:05:56;19.50;58.10
62589;DHT22;58504;48.770;9.148;2023-11-21T01:08:23;19.50;58.10
62589;DHT22;58504;48.770;9.148;2023-11-21T01:10:50;19.50;58.10
62589;DHT22;58504;48.770;9.148;2023-11-21T01:13:17;19.50;58.10
62589;DHT22;58504;48.770;9.148;2023-11-21T01:15:45;19.50;58.10
62589;DHT22;58504;48.770;9.148;2023-11-21T01:18:12;19.50;58.70
62589;DHT22;58504;48.770;9.148;2023-11-21T01:20:39;19.50;58.20
62589;DHT22;58504;48.770;9.148;2023-11-21T01:23:06;19.50;58.20
62589;DHT22;58504;48.770;9.148;2023-11-21T01:25:32;19.40;58.20
62589;DHT22;58504;48.770;9.148;2023-11-21T01:27:59;19.40;58.20
62589;DHT22;58504;48.770;9.148;2023-11-21T01:30:26;19.40;58.20
62589;DHT22;58504;48.770;9.148;2023-11-21T01:32:54;19.40;58.20
62589;DHT22;58504;48.770;9.148;2023-11-21T01:35:22;19.40;58.20
62589;DHT22;58504;48.770;9.148;2023-11-21T01:37:48;19.40;58.30
62589;DHT22;58504;48.770;9.148;2023-11-21T01:40:15;19.40;58.80
62589;DHT22;58504;48.770;9.148;2023-11-21T01:42:42;19.30;58.20
62589;DHT22;58504;48.770;9.148;2023-11-21T01:45:10;19.30;58.20
62589;DHT22;58504;48.770;9.148;2023-11-21T01:47:38;19.30;58.30
62589;DHT22;58504;48.770;9.148;2023-11-21T01:50:08;19.30;58.30
62589;DHT22;58504;48.770;9.148;2023-11-21T01:52:38;19.30;58.40
62589;DHT22;58504;48.770;9.148;2023-11-21T01:55:08;19.30;58.40
62589;DHT22;58504;48.770;9.148;2023-11-21T01:57:35;19.30;58.40
62589;DHT22;58504;48.770;9.148;2023-11-21T02:00:04;19.30;58.40
62589;DHT22;58504;48.770;9.148;2023-11-21T02:02:41;19.30;58.50
62589;DHT22;58504;48.770;9.148;2023-11-21T02:05:10;19.30;58.50
62589;DHT22;58504;48.770;9.148;2023-11-21T02:07:38;19.30;58.50
62589;DHT22;58504;48.770;9.148;2023-11-21T02:10:06;19.20;58.40
62589;DHT22;58504;48.770;9.148;2023-11-21T02:12:33;19.20;58.50
62589;DHT22;58504;48.770;9.148;2023-11-21T02:15:00;19.20;58.50
62589;DHT22;58504;48.770;9.148;2023-11-21T02:17:28;19.20;58.50
62589;DHT22;58504;48.770;9.148;2023-11-21T02:19:55;19.20;58.50
62589;DHT22;58504;48.770;9.148;2023-11-21T02:22:23;19.20;58.50
62589;DHT22;58504;48.770;9.148;2023-11-21T02:24:53;19.20;58.60
62589;DHT22;58504;48.770;9.148;2023-11-21T02:27:19;19.20;58.60
62589;DHT22;58504;48.770;9.148;2023-11-21T02:29:49;19.20;58.60
62589;DHT22;58504;48.770;9.148;2023-11-21T02:32:15;19.10;58.50
62589;DHT22;58504;48.770;9.148;2023-11-21T02:34:44;19.10;58.50
62589;DHT22;58504;48.770;9.148;2023-11-21T02:37:11;19.10;58.50
62589;DHT22;58504;48.770;9.148;2023-11-21T02:39:38;19.10;58.50
62589;DHT22;58504;48.770;9.148;2023-11-21T02:42:06;19.10;58.60
62589;DHT22;58504;48.770;9.148;2023-11-21T02:44:33;19.10;58.60
62589;DHT22;58504;48.770;9.148;2023-11-21T02:47:00;19.10;58.60
62589;DHT22;58504;48.770;9.148;2023-11-21T02:49:26;19.10;58.60
62589;DHT22;58504;48.770;9.148;2023-11-21T02:51:54;19.10;58.60
62589;DHT22;58504;48.770;9.148;2023-11-21T02:54:21;19.10;58.60
62589;DHT22;58504;48.770;9.148;2023-11-21T02:56:48;19.00;58.60
62589;DHT22;58504;48.770;9.148;2023-11-21T02:59:17;19.10;58.60
62589;DHT22;58504;48.770;9.148;2023-11-21T03:01:44;19.00;58.60
62589;DHT22;58504;48.770;9.148;2023-11-21T03:04:11;19.00;58.60
62589;DHT22;58504;48.770;9.148;2023-11-21T03:06:43;19.00;58.60
62589;DHT22;58504;48.770;9.148;2023-11-21T03:09:09;19.00;58.60
62589;DHT22;58504;48.770;9.148;2023-11-21T03:11:37;19.00;58.70
62589;DHT22;58504;48.770;9.148;2023-11-21T03:14:04;19.00;58.70
62589;DHT22;58504;48.770;9.148;2023-11-21T03:16:32;19.00;58.70
62589;DHT22;58504;48.770;9.148;2023-11-21T03:18:59;19.00;58.70
62589;DHT22;58504;48.770;9.148;2023-11-21T03:21:25;19.00;58.70
62589;DHT22;58504;48.770;9.148;2023-11-21T03:23:52;19.00;58.70
62589;DHT22;58504;48.770;9.148;2023-11-21T03:26:19;19.00;58.70
62589;DHT22;58504;48.770;9.148;2023-11-21T03:28:46;19.00;58.70
62589;DHT22;58504;48.770;9.148;2023-11-21T03:31:13;18.90;58.70
62589;DHT22;58504;48.770;9.148;2023-11-21T03:33:42;18.90;58.70
62589;DHT22;58504;48.770;9.148;2023-11-21T03:36:11;18.90;58.70
62589;DHT22;58504;48.770;9.148;2023-11-21T03:38:38;18.90;58.70
62589;DHT22;58504;48.770;9.148;2023-11-21T03:41:05;18.90;58.70
62589;DHT22;58504;48.770;9.148;2023-11-21T03:43:32;18.90;58.70
62589;DHT22;58504;48.770;9.148;2023-11-21T03:45:59;18.90;58.70
62589;DHT22;58504;48.770;9.148;2023-11-21T03:48:26;18.90;58.70
62589;DHT22;58504;48.770;9.148;2023-11-21T03:50:54;18.90;58.80
62589;DHT22;58504;48.770;9.148;2023-11-21T03:53:20;18.90;58.80
62589;DHT22;58504;48.770;9.148;2023-11-21T03:55:47;18.90;58.80
62589;DHT22;58504;48.770;9.148;2023-11-21T03:58:14;18.80;58.70
62589;DHT22;58504;48.770;9.148;2023-11-21T04:00:41;18.90;58.90
62589;DHT22;58504;48.770;9.148;2023-11-21T04:03:08;18.80;58.70
62589;DHT22;58504;48.770;9.148;2023-11-21T04:05:35;18.80;58.80
62589;DHT22;58504;48.770;9.148;2023-11-21T04:08:03;18.80;58.80
62589;DHT22;58504;48.770;9.148;2023-11-21T04:10:30;18.80;58.80
62589;DHT22;58504;48.770;9.148;2023-11-21T04:12:57;18.80;58.80
62589;DHT22;58504;48.770;9.148;2023-11-21T04:15:23;18.80;58.80
62589;DHT22;58504;48.770;9.148;2023-11-21T04:17:50;18.80;58.80
62589;DHT22;58504;48.770;9.148;2023-11-21T04:20:17;18.80;58.80
62589;DHT22;58504;48.770;9.148;2023-11-21T04:22:44;18.80;58.90
62589;DHT22;58504;48.770;9.148;2023-11-21T04:25:14;18.80;58.90
62589;DHT22;58504;48.770;9.148;2023-11-21T04:27:43;18.80;58.90
62589;DHT22;58504;48.770;9.148;2023-11-21T04:30:10;18.70;58.80
62589;DHT22;58504;48.770;9.148;2023-11-21T04:32:37;18.70;58.90
62589;DHT22;58504;48.770;9.148;2023-11-21T04:35:05;18.70;58.90
62589;DHT22;58504;48.770;9.148;2023-11-21T04:37:34;18.80;58.80
62589;DHT22;58504;48.770;9.148;2023-11-21T04:40:00;18.80;58.60
62589;DHT22;58504;48.770;9.148;2023-11-21T04:42:33;18.90;58.60
62589;DHT22;58504;48.770;9.148;2023-11-21T04:45:00;18.90;58.40
62589;DHT22;58504;48.770;9.148;2023-11-21T04:47:30;19.00;58.20
62589;DHT22;58504;48.770;9.148;2023-11-21T04:49:57;19.10;58.10
62589;DHT22;58504;48.770;9.148;2023-11-21T04:52:24;19.10;57.90
62589;DHT22;58504;48.770;9.148;2023-11-21T04:54:50;19.20;57.70
62589;DHT22;58504;48.770;9.148;2023-11-21T04:57:16;19.30;57.60
62589;DHT22;58504;48.770;9.148;2023-11-21T04:59:45;19.30;57.40
62589;DHT22;58504;48.770;9.148;2023-11-21T05:02:12;19.40;57.40
62589;DHT22;58504;48.770;9.148;2023-11-21T05:04:39;19.50;57.40
62589;DHT22;58504;48.770;9.148;2023-11-21T05:07:05;19.50;57.30
62589;DHT22;58504;48.770;9.148;2023-11-21T05:09:32;19.60;57.20
62589;DHT22;58504;48.770;9.148;2023-11-21T05:11:59;19.60;57.10
62589;DHT22;58504;48.770;9.148;2023-11-21T05:14:26;19.60;57.00
62589;DHT22;58504;48.770;9.148;2023-11-21T05:16:54;19.70;57.00
62589;DHT22;58504;48.770;9.148;2023-11-21T05:19:21;19.70;56.90
62589;DHT22;58504;48.770;9.148;2023-11-21T05:21:48;19.80;56.90
62589;DHT22;58504;48.770;9.148;2023-11-21T05:24:15;19.80;56.80
62589;DHT22;58504;48.770;9.148;2023-11-21T05:26:41;19.90;56.70
62589;DHT22;58504;48.770;9.148;2023-11-21T05:29:08;19.90;56.70
62589;DHT22;58504;48.770;9.148;2023-11-21T05:31:36;19.90;56.50
62589;DHT22;58504;48.770;9.148;2023-11-21T05:34:04;20.00;56.50
62589;DHT22;58504;48.770;9.148;2023-11-21T05:36:31;20.00;56.50
62589;DHT22;58504;48.770;9.148;2023-11-21T05:38:59;20.10;56.40
62589;DHT22;58504;48.770;9.148;2023-11-21T05:41:25;20.10;56.40
62589;DHT22;58504;48.770;9.148;2023-11-21T05:43:52;20.10;56.20
62589;DHT22;58504;48.770;9.148;2023-11-21T05:46:19;20.20;56.20
62589;DHT22;58504;48.770;9.148;2023-11-21T05:48:47;20.20;56.20
62589;DHT22;58504;48.770;9.148;2023-11-21T05:51:15;20.20;56.10
62589;DHT22;58504;48.770;9.148;2023-11-21T05:53:43;20.20;56.00
62589;DHT22;58504;48.770;9.148;2023-11-21T05:56:09;20.20;56.00
62589;DHT22;58504;48.770;9.148;2023-11-21T05:58:36;20.30;56.00
62589;DHT22;58504;48.770;9.148;2023-11-21T06:01:05;20.30;55.90
62589;DHT22;58504;48.770;9.148;2023-11-21T06:03:33;20.30;55.90
62589;DHT22;58504;48.770;9.148;2023-11-21T06:05:59;20.30;55.80
62589;DHT22;58504;48.770;9.148;2023-11-21T06:08:27;20.30;55.80
62589;DHT22;58504;48.770;9.148;2023-11-21T06:10:54;20.40;55.80
62589;DHT22;58504;48.770;9.148;2023-11-21T06:13:21;20.40;55.70
62589;DHT22;58504;48.770;9.148;2023-11-21T06:15:50;20.40;55.70
62589;DHT22;58504;48.770;9.148;2023-11-21T06:18:16;20.40;55.70
62589;DHT22;58504;48.770;9.148;2023-11-21T06:20:44;20.40;55.60
62589;DHT22;58504;48.770;9.148;2023-11-21T06:23:11;20.50;55.70
62589;DHT22;58504;48.770;9.148;2023-11-21T06:25:40;20.50;55.60
62589;DHT22;58504;48.770;9.148;2023-11-21T06:28:07;20.50;55.60
62589;DHT22;58504;48.770;9.148;2023-11-21T06:30:34;20.50;55.60
62589;DHT22;58504;48.770;9.148;2023-11-21T06:33:01;20.50;55.50
62589;DHT22;58504;48.770;9.148;2023-11-21T06:35:27;20.50;55.50
62589;DHT22;58504;48.770;9.148;2023-11-21T06:37:55;20.60;55.50
62589;DHT22;58504;48.770;9.148;2023-11-21T06:40:22;20.60;55.50
62589;DHT22;58504;48.770;9.148;2023-11-21T06:42:51;20.60;55.70
62589;DHT22;58504;48.770;9.148;2023-11-21T06:45:18;20.60;55.30
62589;DHT22;58504;48.770;9.148;2023-11-21T06:47:45;20.60;55.30
62589;DHT22;58504;48.770;9.148;2023-11-21T06:50:12;20.60;55.30
62589;DHT22;58504;48.770;9.148;2023-11-21T06:52:39;20.60;55.20
62589;DHT22;58504;48.770;9.148;2023-11-21T06:55:06;20.60;55.20
62589;DHT22;58504;48.770;9.148;2023-11-21T06:57:35;20.60;55.20
62589;DHT22;58504;48.770;9.148;2023-11-21T07:00:04;20.70;55.30
62589;DHT22;58504;48.770;9.148;2023-11-21T07:02:31;20.70;55.20
62589;DHT22;58504;48.770;9.148;2023-11-21T07:04:58;20.70;55.10
62589;DHT22;58504;48.770;9.148;2023-11-21T07:07:25;20.70;55.10
62589;DHT22;58504;48.770;9.148;2023-11-21T07:09:52;20.70;55.00
62589;DHT22;58504;48.770;9.148;2023-11-21T07:12:19;20.70;55.00
62589;DHT22;58504;48.770;9.148;2023-11-21T07:14:49;20.80;55.00
62589;DHT22;58504;48.770;9.148;2023-11-21T07:17:17;20.80;55.00
62589;DHT22;58504;48.770;9.148;2023-11-21T07:19:44;20.80;55.00
62589;DHT22;58504;48.770;9.148;2023-11-21T07:22:11;20.80;54.80
62589;DHT22;58504;48.770;9.148;2023-11-21T07:24:39;20.80;54.70
62589;DHT22;58504;48.770;9.148;2023-11-21T07:27:06;20.90;54.70
62589;DHT22;58504;48.770;9.148;2023-11-21T07:29:33;20.90;54.70
62589;DHT22;58504;48.770;9.148;2023-11-21T07:31:59;20.90;54.60
62589;DHT22;58504;48.770;9.148;2023-11-21T07:34:27;20.90;54.60
62589;DHT22;58504;48.770;9.148;2023-11-21T07:36:54;21.00;54.60
62589;DHT22;58504;48.770;9.148;2023-11-21T07:39:21;21.00;54.60
62589;DHT22;58504;48.770;9.148;2023-11-21T07:41:48;21.00;54.50
62589;DHT22;58504;48.770;9.148;2023-11-21T07:44:15;21.00;54.50
62589;DHT22;58504;48.770;9.148;2023-11-21T07:46:43;21.00;54.40
62589;DHT22;58504;48.770;9.148;2023-11-21T07:49:10;21.00;54.30
62589;DHT22;58504;48.770;9.148;2023-11-21T07:51:38;21.00;54.30
62589;DHT22;58504;48.770;9.148;2023-11-21T07:54:05;21.10;54.30
62589;DHT22;58504;48.770;9.148;2023-11-21T07:56:32;21.10;54.30
62589;DHT22;58504;48.770;9.148;2023-11-21T07:58:58;21.10;54.20
62589;DHT22;58504;48.770;9.148;2023-11-21T08:01:25;21.10;54.10
62589;DHT22;58504;48.770;9.148;2023-11-21T08:03:53;21.10;54.10
62589;DHT22;58504;48.770;9.148;2023-11-21T08:06:22;21.20;54.10
62589;DHT22;58504;48.770;9.148;2023-11-21T08:08:50;21.20;54.10
62589;DHT22;58504;48.770;9.148;2023-11-21T08:11:17;21.20;54.00
62589;DHT22;58504;48.770;9.148;2023-11-21T08:13:45;21.20;54.00
62589;DHT22;58504;48.770;9.148;2023-11-21T08:16:12;21.20;54.00
62589;DHT22;58504;48.770;9.148;2023-11-21T08:18:39;21.20;54.00
62589;DHT22;58504;48.770;9.148;2023-11-21T08:21:06;21.30;54.00
62589;DHT22;58504;48.770;9.148;2023-11-21T08:23:33;21.30;54.00
62589;DHT22;58504;48.770;9.148;2023-11-21T08:26:01;21.30;53.90
62589;DHT22;58504;48.770;9.148;2023-11-21T08:28:28;21.30;53.90
62589;DHT22;58504;48.770;9.148;2023-11-21T08:30:55;21.30;53.80
62589;DHT22;58504;48.770;9.148;2023-11-21T08:33:22;21.40;53.80
62589;DHT22;58504;48.770;9.148;2023-11-21T08:35:49;21.40;53.80
62589;DHT22;58504;48.770;9.148;2023-11-21T08:38:16;21.40;53.80
62589;DHT22;58504;48.770;9.148;2023-11-21T08:40:43;21.40;53.80
62589;DHT22;58504;48.770;9.148;2023-11-21T08:43:11;21.50;54.10
62589;DHT22;58504;48.770;9.148;2023-11-21T08:45:40;21.50;54.30
62589;DHT22;58504;48.770;9.148;2023-11-21T08:48:06;21.60;54.30
62589;DHT22;58504;48.770;9.148;2023-11-21T08:50:34;21.70;54.30
62589;DHT22;58504;48.770;9.148;2023-11-21T08:53:00;21.80;54.10
62589;DHT22;58504;48.770;9.148;2023-11-21T08:55:27;21.90;53.90
62589;DHT22;58504;48.770;9.148;2023-11-21T08:57:54;22.00;53.60
62589;DHT22;58504;48.770;9.148;2023-11-21T09:00:22;22.20;53.50
62589;DHT22;58504;48.770;9.148;2023-11-21T09:02:49;22.30;53.40
62589;DHT22;58504;48.770;9.148;2023-11-21T09:05:16;22.40;53.40
62589;DHT22;58504;48.770;9.148;2023-11-21T09:07:44;22.50;53.10
62589;DHT22;58504;48.770;9.148;2023-11-21T09:10:14;22.60;53.00
62589;DHT22;58504;48.770;9.148;2023-11-21T09:12:40;22.70;53.40
62589;DHT22;58504;48.770;9.148;2023-11-21T09:15:09;22.70;52.80
62589;DHT22;58504;48.770;9.148;2023-11-21T09:17:38;22.70;52.70
62589;DHT22;58504;48.770;9.148;2023-11-21T09:20:07;22.80;52.70
62589;DHT22;58504;48.770;9.148;2023-11-21T09:22:35;22.80;52.60
62589;DHT22;58504;48.770;9.148;2023-11-21T09:25:02;22.90;52.40
62589;DHT22;58504;48.770;9.148;2023-11-21T09:27:30;23.00;52.40
62589;DHT22;58504;48.770;9.148;2023-11-21T09:29:57;23.00;52.30
62589;DHT22;58504;48.770;9.148;2023-11-21T09:32:24;23.00;52.20
62589;DHT22;58504;48.770;9.148;2023-11-21T09:34:52;23.00;52.30
62589;DHT22;58504;48.770;9.148;2023-11-21T09:37:21;23.00;52.30
62589;DHT22;58504;48.770;9.148;2023-11-21T09:39:47;23.00;52.30
62589;DHT22;58504;48.770;9.148;2023-11-21T09:42:17;23.00;52.20
62589;DHT22;58504;48.770;9.148;2023-11-21T09:44:48;23.00;52.20
62589;DHT22;58504;48.770;9.148;2023-11-21T09:47:18;22.90;52.20
62589;DHT22;58504;48.770;9.148;2023-11-21T09:49:47;22.90;52.20
62589;DHT22;58504;48.770;9.148;2023-11-21T09:52:22;22.90;52.40
62589;DHT22;58504;48.770;9.148;2023-11-21T09:54:51;22.80;52.40
62589;DHT22;58504;48.770;9.148;2023-11-21T09:57:19;22.80;52.40
62589;DHT22;58504;48.770;9.148;2023-11-21T09:59:47;22.80;52.50
62589;DHT22;58504;48.770;9.148;2023-11-21T10:02:17;22.80;52.50
62589;DHT22;58504;48.770;9.148;2023-11-21T10:04:46;22.80;52.60
62589;DHT22;58504;48.770;9.148;2023-11-21T10:07:17;22.90;52.60
62589;DHT22;58504;48.770;9.148;2023-11-21T10:09:46;22.90;52.50
62589;DHT22;58504;48.770;9.148;2023-11-21T10:12:15;22.90;52.50
62589;DHT22;58504;48.770;9.148;2023-11-21T10:14:42;23.00;52.60
62589;DHT22;58504;48.770;9.148;2023-11-21T10:17:10;23.00;52.50
62589;DHT22;58504;48.770;9.148;2023-11-21T10:19:39;23.00;52.50
62589;DHT22;58504;48.770;9.148;2023-11-21T10:22:07;23.00;52.50
62589;DHT22;58504;48.770;9.148;2023-11-21T10:24:35;23.00;52.50
62589;DHT22;58504;48.770;9.148;2023-11-21T10:27:04;23.00;52.50
62589;DHT22;58504;48.770;9.148;2023-11-21T10:29:31;23.00;52.50
62589;DHT22;58504;48.770;9.148;2023-11-21T10:32:02;23.00;52.50
62589;DHT22;58504;48.770;9.148;2023-11-21T10:34:29;23.00;52.50
62589;DHT22;58504;48.770;9.148;2023-11-21T10:36:55;23.00;52.50
62589;DHT22;58504;48.770;9.148;2023-11-21T10:39:24;23.00;52.50
62589;DHT22;58504;48.770;9.148;2023-11-21T10:41:55;23.10;52.70
62589;DHT22;58504;48.770;9.148;2023-11-21T10:44:22;23.10;52.60
62589;DHT22;58504;48.770;9.148;2023-11-21T10:46:51;23.10;52.60
62589;DHT22;58504;48.770;9.148;2023-11-21T10:49:21;23.10;53.10
62589;DHT22;58504;48.770;9.148;2023-11-21T10:51:50;23.10;52.50
62589;DHT22;58504;48.770;9.148;2023-11-21T10:54:19;23.10;52.40
62589;DHT22;58504;48.770;9.148;2023-11-21T10:56:47;23.10;52.40
62589;DHT22;58504;48.770;9.148;2023-11-21T10:59:17;23.10;52.40
62589;DHT22;58504;48.770;9.148;2023-11-21T11:01:46;23.20;52.40
62589;DHT22;58504;48.770;9.148;2023-11-21T11:04:15;23.20;52.30
62589;DHT22;58504;48.770;9.148;2023-11-21T11:06:44;23.20;52.20
62589;DHT22;58504;48.770;9.148;2023-11-21T11:09:16;23.30;52.20
62589;DHT22;58504;48.770;9.148;2023-11-21T11:11:43;23.30;52.20
62589;DHT22;58504;48.770;9.148;2023-11-21T11:14:11;23.30;52.10
62589;DHT22;58504;48.770;9.148;2023-11-21T11:16:41;23.30;52.00
62589;DHT22;58504;48.770;9.148;2023-11-21T11:19:08;23.30;52.00
62589;DHT22;58504;48.770;9.148;2023-11-21T11:21:44;23.40;52.10
62589;DHT22;58504;48.770;9.148;2023-11-21T11:24:32;23.30;52.00
62589;DHT22;58504;48.770;9.148;2023-11-21T11:27:06;23.40;52.00
62589;DHT22;58504;48.770;9.148;2023-11-21T11:29:45;23.40;52.00
62589;DHT22;58504;48.770;9.148;2023-11-21T11:32:21;23.40;51.90
62589;DHT22;58504;48.770;9.148;2023-11-21T11:34:56;23.40;51.90
62589;DHT22;58504;48.770;9.148;2023-11-21T11:37:26;23.40;51.90
62589;DHT22;58504;48.770;9.148;2023-11-21T11:39:54;23.40;51.90
62589;DHT22;58504;48.770;9.148;2023-11-21T11:42:22;23.40;51.80
62589;DHT22;58504;48.770;9.148;2023-11-21T11:44:51;23.40;51.80
62589;DHT22;58504;48.770;9.148;2023-11-21T11:47:24;23.40;51.70
62589;DHT22;58504;48.770;9.148;2023-11-21T11:50:04;23.40;51.70
62589;DHT22;58504;48.770;9.148;2023-11-21T11:52:35;23.40;51.70
62589;DHT22;58504;48.770;9.148;2023-11-21T11:55:02;23.50;51.70
62589;DHT22;58504;48.770;9.148;2023-11-21T11:57:30;23.50;51.50
62589;DHT22;58504;48.770;9.148;2023-11-21T12:00:08;23.50;51.40
62589;DHT22;58504;48.770;9.148;2023-11-21T12:02:38;23.50;51.50
62589;DHT22;58504;48.770;9.148;2023-11-21T12:05:09;23.40;51.60
62589;DHT22;58504;48.770;9.148;2023-11-21T12:07:44;23.40;52.00
62589;DHT22;58504;48.770;9.148;2023-11-21T12:10:14;23.30;52.10
62589;DHT22;58504;48.770;9.148;2023-11-21T12:12:44;23.30;52.20
62589;DHT22;58504;48.770;9.148;2023-11-21T12:15:12;23.30;52.40
62589;DHT22;58504;48.770;9.148;2023-11-21T12:17:41;23.20;52.50
62589;DHT22;58504;48.770;9.148;2023-11-21T12:20:10;23.20;52.70
62589;DHT22;58504;48.770;9.148;2023-11-21T12:22:42;23.20;52.60
62589;DHT22;58504;48.770;9.148;2023-11-21T12:25:09;23.20;52.90
62589;DHT22;58504;48.770;9.148;2023-11-21T12:27:40;23.20;53.40
62589;DHT22;58504;48.770;9.148;2023-11-21T12:30:08;23.20;53.60
62589;DHT22;58504;48.770;9.148;2023-11-21T12:32:40;23.20;53.80
62589;DHT22;58504;48.770;9.148;2023-11-21T12:35:08;23.20;53.70
62589;DHT22;58504;48.770;9.148;2023-11-21T12:37:35;23.20;53.60
62589;DHT22;58504;48.770;9.148;2023-11-21T12:40:02;23.20;53.70
62589;DHT22;58504;48.770;9.148;2023-11-21T12:42:29;23.20;53.60
62589;DHT22;58504;48.770;9.148;2023-11-21T12:45:11;23.20;53.60
62589;DHT22;58504;48.770;9.148;2023-11-21T12:47:48;23.20;53.60
62589;DHT22;58504;48.770;9.148;2023-11-21T12:50:15;23.10;53.50
62589;DHT22;58504;48.770;9.148;2023-11-21T12:52:47;23.10;53.60
62589;DHT22;58504;48.770;9.148;2023-11-21T12:55:16;23.10;53.60
62589;DHT22;58504;48.770;9.148;2023-11-21T12:57:44;23.20;53.80
62589;DHT22;58504;48.770;9.148;2023-11-21T13:00:12;23.20;53.90
62589;DHT22;58504;48.770;9.148;2023-11-21T13:02:53;23.30;54.00
62589;DHT22;58504;48.770;9.148;2023-11-21T13:05:28;23.30;53.90
62589;DHT22;58504;48.770;9.148;2023-11-21T13:07:57;23.40;53.90
62589;DHT22;58504;48.770;9.148;2023-11-21T13:10:26;23.40;53.80
62589;DHT22;58504;48.770;9.148;2023-11-21T13:12:56;23.50;53.80
62589;DHT22;58504;48.770;9.148;2023-11-21T13:15:24;23.50;53.80
62589;DHT22;58504;48.770;9.148;2023-11-21T13:17:52;23.50;53.60
62589;DHT22;58504;48.770;9.148;2023-11-21T13:20:21;23.60;53.60
62589;DHT22;58504;48.770;9.148;2023-11-21T13:22:50;23.60;53.60
62589;DHT22;58504;48.770;9.148;2023-11-21T13:25:20;23.60;53.60
62589;DHT22;58504;48.770;9.148;2023-11-21T13:27:47;23.60;53.60
62589;DHT22;58504;48.770;9.148;2023-11-21T13:30:15;23.60;53.60
62589;DHT22;58504;48.770;9.148;2023-11-21T13:32:43;23.60;53.50
62589;DHT22;58504;48.770;9.148;2023-11-21T13:35:12;23.70;53.50
62589;DHT22;58504;48.770;9.148;2023-11-21T13:37:50;23.60;53.40
62589;DHT22;58504;48.770;9.148;2023-11-21T13:40:21;23.60;53.40
62589;DHT22;58504;48.770;9.148;2023-11-21T13:42:51;23.60;53.30
62589;DHT22;58504;48.770;9.148;2023-11-21T13:45:21;23.60;53.30
62589;DHT22;58504;48.770;9.148;2023-11-21T13:47:48;23.70;53.40
62589;DHT22;58504;48.770;9.148;2023-11-21T13:50:19;23.60;53.40
62589;DHT22;58504;48.770;9.148;2023-11-21T13:52:50;23.60;53.30
62589;DHT22;58504;48.770;9.148;2023-11-21T13:55:18;23.60;53.40
62589;DHT22;58504;48.770;9.148;2023-11-21T13:57:45;23.60;53.40
62589;DHT22;58504;48.770;9.148;2023-11-21T14:00:16;23.60;53.40
62589;DHT22;58504;48.770;9.148;2023-11-21T14:02:56;23.60;53.40
62589;DHT22;58504;48.770;9.148;2023-11-21T14:05:27;23.60;53.30
62589;DHT22;58504;48.770;9.148;2023-11-21T14:07:57;23.60;53.30
62589;DHT22;58504;48.770;9.148;2023-11-21T14:10:28;23.60;53.20
62589;DHT22;58504;48.770;9.148;2023-11-21T14:13:02;23.60;53.20
62589;DHT22;58504;48.770;9.148;2023-11-21T14:15:31;23.60;53.20
62589;DHT22;58504;48.770;9.148;2023-11-21T14:17:58;23.60;53.30
62589;DHT22;58504;48.770;9.148;2023-11-21T14:20:29;23.60;53.20
62589;DHT22;58504;48.770;9.148;2023-11-21T14:22:56;23.60;53.30
62589;DHT22;58504;48.770;9.148;2023-11-21T14:25:23;23.60;53.30
62589;DHT22;58504;48.770;9.148;2023-11-21T14:27:52;23.50;53.30
62589;DHT22;58504;48.770;9.148;2023-11-21T14:30:19;23.50;53.20
62589;DHT22;58504;48.770;9.148;2023-11-21T14:32:48;23.60;53.30
62589;DHT22;58504;48.770;9.148;2023-11-21T14:35:15;23.60;53.30
62589;DHT22;58504;48.770;9.148;2023-11-21T14:37:43;23.60;53.20
62589;DHT22;58504;48.770;9.148;2023-11-21T14:40:12;23.60;53.20
62589;DHT22;58504;48.770;9.148;2023-11-21T14:42:41;23.60;53.20
62589;DHT22;58504;48.770;9.148;2023-11-21T14:45:10;23.60;53.10
62589;DHT22;58504;48.770;9.148;2023-11-21T14:47:38;23.70;53.20
62589;DHT22;58504;48.770;9.148;2023-11-21T14:50:10;23.70;53.10
62589;DHT22;58504;48.770;9.148;2023-11-21T14:53:06;23.70;53.10
62589;DHT22;58504;48.770;9.148;2023-11-21T14:55:32;23.70;53.10
62589;DHT22;58504;48.770;9.148;2023-11-21T14:58:08;23.70;53.00
62589;DHT22;58504;48.770;9.148;2023-11-21T15:00:39;23.70;53.00
62589;DHT22;58504;48.770;9.148;2023-11-21T15:03:10;23.70;53.00
62589;DHT22;58504;48.770;9.148;2023-11-21T15:05:50;23.70;53.00
62589;DHT22;58504;48.770;9.148;2023-11-21T15:08:17;23.70;53.00
62589;DHT22;58504;48.770;9.148;2023-11-21T15:10:47;23.70;53.00
62589;DHT22;58504;48.770;9.148;2023-11-21T15:13:18;23.70;53.00
62589;DHT22;58504;48.770;9.148;2023-11-21T15:15:46;23.70;53.00
62589;DHT22;58504;48.770;9.148;2023-11-21T15:18:12;23.70;52.90
62589;DHT22;58504;48.770;9.148;2023-11-21T15:20:40;23.70;53.00
62589;DHT22;58504;48.770;9.148;2023-11-21T15:23:07;23.70;53.00
62589;DHT22;58504;48.770;9.148;2023-11-21T15:25:35;23.70;52.90
62589;DHT22;58504;48.770;9.148;2023-11-21T15:28:02;23.70;52.90
62589;DHT22;58504;48.770;9.148;2023-11-21T15:30:30;23.70;52.90
62589;DHT22;58504;48.770;9.148;2023-11-21T15:32:57;23.70;52.90
62589;DHT22;58504;48.770;9.148;2023-11-21T15:35:24;23.70;52.90
62589;DHT22;58504;48.770;9.148;2023-11-21T15:37:53;23.80;53.00